Time;durP1;ratioP1;P1;durP2;ratioP2;P2;SDS_P1;SDS_P2;PMS_P1;PMS_P2;Temp;Humidity;BMP_temperature;BMP_pressure;BME280_temperature;BME280_humidity;BME280_pressure;Samples;Min_cycle;Max_cycle;Signal;HPM_P1;HPM_P2
2023/02/24 00:01:07;;;;;;;48.63;24.83;;;7.40;99.90;;;;;;466129;255;27891;-82
2023/02/24 00:03:04;;;;;;;52.47;26.37;;;7.50;99.90;;;;;;466162;255;27571;-82
2023/02/24 00:05:01;;;;;;;53.83;27.50;;;7.40;99.90;;;;;;466241;255;29072;-82
2023/02/24 00:07:03;;;;;;;48.63;25.90;;;7.50;99.90;;;;;;466049;255;28553;-82
2023/02/24 00:09:08;;;;;;;51.80;24.53;;;7.50;99.90;;;;;;466234;255;28555;-81
2023/02/24 00:11:08;;;;;;;53.10;26.50;;;7.50;99.90;;;;;;466423;254;28428;-81
2023/02/24 00:13:11;;;;;;;44.20;24.07;;;7.40;99.90;;;;;;466045;255;28138;-83
2023/02/24 00:15:11;;;;;;;51.90;26.80;;;7.40;99.90;;;;;;466237;255;28228;-81
2023/02/24 00:17:15;;;;;;;52.53;27.97;;;7.50;99.90;;;;;;466222;255;28154;-82
2023/02/24 00:19:16;;;;;;;52.07;26.93;;;7.30;99.90;;;;;;466563;253;28039;-83
2023/02/24 00:21:18;;;;;;;48.73;26.40;;;7.40;99.90;;;;;;466234;253;28173;-81
2023/02/24 00:23:19;;;;;;;48.77;24.03;;;7.40;99.90;;;;;;466204;255;27815;-82
2023/02/24 00:25:21;;;;;;;47.90;25.87;;;7.40;99.90;;;;;;466227;255;28087;-83
2023/02/24 00:27:21;;;;;;;61.00;27.60;;;7.50;99.90;;;;;;466211;255;27974;-82
2023/02/24 00:29:23;;;;;;;51.27;26.80;;;7.30;99.90;;;;;;466141;255;28418;-80
2023/02/24 00:31:24;;;;;;;49.73;25.40;;;7.30;99.90;;;;;;466170;255;28652;-81
2023/02/24 00:33:27;;;;;;;42.27;22.87;;;7.30;99.90;;;;;;466116;255;28576;-81
2023/02/24 00:35:28;;;;;;;57.43;28.30;;;7.30;99.90;;;;;;466178;255;28301;-80
2023/02/24 00:37:28;;;;;;;51.77;26.00;;;7.40;99.90;;;;;;466190;255;28120;-82
2023/02/24 00:39:30;;;;;;;57.20;26.87;;;7.40;99.90;;;;;;466157;254;27830;-81
2023/02/24 00:41:30;;;;;;;55.70;27.20;;;7.30;99.90;;;;;;466141;253;28046;-81
2023/02/24 00:43:35;;;;;;;51.03;25.10;;;7.20;99.90;;;;;;466110;255;28041;-81
2023/02/24 00:45:35;;;;;;;53.30;26.80;;;7.20;99.90;;;;;;466040;255;28154;-82
2023/02/24 00:47:34;;;;;;;45.13;24.13;;;7.20;99.90;;;;;;466187;255;28564;-82
2023/02/24 00:49:40;;;;;;;60.03;29.57;;;7.20;99.90;;;;;;466188;255;28162;-82
2023/02/24 00:51:37;;;;;;;54.07;27.43;;;7.20;99.90;;;;;;466129;255;28647;-81
2023/02/24 00:53:38;;;;;;;52.37;26.37;;;7.20;99.90;;;;;;466130;254;28978;-81
2023/02/24 00:55:39;;;;;;;57.43;28.73;;;7.20;99.90;;;;;;466180;255;28288;-81
2023/02/24 00:57:40;;;;;;;54.57;27.57;;;7.10;99.90;;;;;;466253;255;28131;-81
2023/02/24 00:59:46;;;;;;;54.70;27.10;;;7.00;99.90;;;;;;466202;255;27960;-81
2023/02/24 01:01:44;;;;;;;59.83;28.30;;;7.00;99.90;;;;;;466221;255;28026;-82
2023/02/24 01:03:44;;;;;;;46.70;24.10;;;6.90;99.90;;;;;;466362;254;28076;-80
2023/02/24 01:05:45;;;;;;;55.13;26.80;;;7.00;99.90;;;;;;466476;255;28294;-80
2023/02/24 01:07:47;;;;;;;62.17;30.67;;;7.10;99.90;;;;;;466491;255;28574;-82
2023/02/24 01:09:48;;;;;;;58.90;27.97;;;7.00;99.90;;;;;;466209;255;28646;-81
2023/02/24 01:14:09;;;;;;;53.40;26.23;;;6.90;99.90;;;;;;466474;253;28484;-82
2023/02/24 01:16:12;;;;;;;62.50;29.37;;;7.00;99.90;;;;;;466302;255;27941;-78
2023/02/24 01:18:11;;;;;;;46.00;24.93;;;7.10;99.90;;;;;;466336;255;27541;-79
2023/02/24 01:20:15;;;;;;;45.73;24.23;;;7.10;99.90;;;;;;466288;255;28047;-80
2023/02/24 01:22:16;;;;;;;48.30;24.17;;;7.20;99.90;;;;;;466549;253;28157;-83
2023/02/24 01:24:18;;;;;;;48.50;24.60;;;7.30;99.90;;;;;;466417;255;28234;-81
2023/02/24 01:26:19;;;;;;;58.07;27.30;;;7.20;99.90;;;;;;466462;255;28058;-83
2023/02/24 01:28:20;;;;;;;46.60;24.40;;;7.20;99.90;;;;;;466469;253;28449;-80
2023/02/24 01:30:21;;;;;;;43.93;23.50;;;7.30;99.90;;;;;;466514;255;28408;-82
2023/02/24 01:32:24;;;;;;;47.70;23.77;;;7.30;99.90;;;;;;466275;255;27941;-82
2023/02/24 01:34:24;;;;;;;47.13;24.83;;;7.30;99.90;;;;;;466238;255;27827;-82
2023/02/24 01:36:26;;;;;;;57.37;27.33;;;7.30;99.90;;;;;;466217;254;27907;-82
2023/02/24 01:38:27;;;;;;;54.73;27.97;;;7.20;99.90;;;;;;466250;255;27734;-81
2023/02/24 01:40:28;;;;;;;50.30;25.53;;;7.20;99.90;;;;;;466300;255;28014;-82
2023/02/24 01:42:29;;;;;;;58.20;28.10;;;7.20;99.90;;;;;;466276;255;27988;-83
2023/02/24 01:44:31;;;;;;;53.93;27.47;;;7.20;99.90;;;;;;466257;255;28196;-82
2023/02/24 01:46:31;;;;;;;48.53;26.13;;;7.10;99.90;;;;;;466243;255;28467;-81
2023/02/24 01:48:33;;;;;;;50.23;25.47;;;7.20;99.90;;;;;;466168;255;28556;-81
2023/02/24 01:50:34;;;;;;;51.13;24.90;;;7.20;99.90;;;;;;466250;255;27824;-82
2023/02/24 01:52:36;;;;;;;47.17;25.33;;;7.20;99.90;;;;;;466214;255;28065;-81
2023/02/24 01:54:40;;;;;;;57.30;28.10;;;7.30;99.90;;;;;;466221;255;28061;-82
2023/02/24 01:56:40;;;;;;;51.63;25.50;;;7.30;99.90;;;;;;466245;255;27899;-81
2023/02/24 01:58:39;;;;;;;56.87;27.60;;;7.30;99.90;;;;;;466170;255;28100;-82
2023/02/24 02:00:50;;;;;;;50.23;26.30;;;7.30;99.90;;;;;;466183;255;28046;-82
2023/02/24 02:02:42;;;;;;;52.30;26.57;;;7.30;99.90;;;;;;465726;255;27884;-83
2023/02/24 02:04:43;;;;;;;47.20;23.77;;;7.30;99.90;;;;;;466170;255;28553;-82
2023/02/24 02:06:44;;;;;;;62.13;27.23;;;7.30;99.90;;;;;;466070;255;28717;-82
2023/02/24 02:08:46;;;;;;;59.70;27.20;;;7.30;99.90;;;;;;466225;255;27960;-83
2023/02/24 02:10:47;;;;;;;65.93;30.10;;;7.30;99.90;;;;;;466038;255;28132;-83
2023/02/24 02:12:50;;;;;;;60.60;28.53;;;7.10;99.90;;;;;;466190;255;27970;-83
2023/02/24 02:14:51;;;;;;;56.90;26.83;;;7.00;99.90;;;;;;465867;255;28009;-82
2023/02/24 02:16:50;;;;;;;53.00;27.03;;;7.00;99.90;;;;;;466238;255;28194;-82
2023/02/24 02:18:55;;;;;;;60.50;28.00;;;7.10;99.90;;;;;;466339;255;28190;-79
2023/02/24 02:20:54;;;;;;;55.37;27.70;;;7.10;99.90;;;;;;466183;255;27941;-82
2023/02/24 02:22:54;;;;;;;59.27;29.70;;;7.10;99.90;;;;;;466271;254;28732;-82
2023/02/24 02:24:55;;;;;;;60.67;31.20;;;7.10;99.90;;;;;;466211;255;27646;-82
2023/02/24 02:26:57;;;;;;;49.77;25.87;;;7.10;99.90;;;;;;466337;254;28026;-81
2023/02/24 02:28:58;;;;;;;55.53;27.30;;;7.10;99.90;;;;;;466230;255;28068;-83
2023/02/24 02:31:00;;;;;;;66.60;29.90;;;7.20;99.90;;;;;;466191;255;28034;-81
2023/02/24 02:33:00;;;;;;;62.10;28.27;;;7.00;99.90;;;;;;466137;255;28277;-82
2023/02/24 02:35:02;;;;;;;54.27;25.50;;;7.00;99.90;;;;;;466162;255;28060;-82
2023/02/24 02:37:04;;;;;;;53.47;26.33;;;7.10;99.90;;;;;;466318;253;28357;-82
2023/02/24 02:39:04;;;;;;;50.17;25.23;;;7.10;99.90;;;;;;466320;253;28535;-82
2023/02/24 02:41:06;;;;;;;52.03;27.00;;;7.10;99.90;;;;;;466204;255;28502;-83
2023/02/24 02:43:07;;;;;;;53.10;26.70;;;7.10;99.90;;;;;;466162;255;28049;-82
2023/02/24 02:45:08;;;;;;;51.17;24.87;;;7.10;99.90;;;;;;466238;255;27745;-82
2023/02/24 02:47:09;;;;;;;58.63;27.90;;;7.20;99.90;;;;;;466284;255;28120;-82
2023/02/24 02:49:10;;;;;;;55.90;28.00;;;7.20;99.90;;;;;;466021;255;28192;-82
2023/02/24 02:51:12;;;;;;;64.17;29.70;;;7.00;99.90;;;;;;466255;255;28070;-82
2023/02/24 02:53:13;;;;;;;56.93;27.80;;;6.90;99.90;;;;;;466340;255;28270;-83
2023/02/24 02:55:14;;;;;;;52.03;26.93;;;6.90;99.90;;;;;;466352;253;28743;-81
2023/02/24 02:57:15;;;;;;;54.77;28.00;;;7.00;99.90;;;;;;466455;255;28411;-82
2023/02/24 02:59:21;;;;;;;51.37;26.10;;;7.10;99.90;;;;;;466466;255;28312;-80
2023/02/24 03:01:19;;;;;;;50.73;24.47;;;7.10;99.90;;;;;;466392;255;28149;-80
2023/02/24 03:03:19;;;;;;;50.87;24.57;;;7.10;99.90;;;;;;466194;254;27963;-82
2023/02/24 03:05:20;;;;;;;61.13;29.00;;;7.20;99.90;;;;;;466433;253;27918;-81
2023/02/24 03:07:22;;;;;;;53.93;24.50;;;7.10;99.90;;;;;;466295;253;28040;-81
2023/02/24 03:09:23;;;;;;;52.30;25.43;;;7.00;99.90;;;;;;466225;255;28084;-82
2023/02/24 03:11:24;;;;;;;50.57;26.53;;;7.10;99.90;;;;;;465762;255;28142;-82
2023/02/24 03:13:28;;;;;;;53.80;26.87;;;7.10;99.90;;;;;;466232;253;28268;-81
2023/02/24 03:15:27;;;;;;;50.00;24.40;;;7.10;99.90;;;;;;466279;255;28408;-82
2023/02/24 03:17:28;;;;;;;41.73;21.80;;;7.10;99.90;;;;;;466183;255;28239;-80
2023/02/24 03:19:30;;;;;;;56.47;27.40;;;7.20;99.90;;;;;;466048;255;28058;-83
2023/02/24 03:21:31;;;;;;;54.47;24.63;;;7.20;99.90;;;;;;466208;255;27925;-82
2023/02/24 03:23:34;;;;;;;47.07;24.47;;;7.20;99.90;;;;;;466229;255;28172;-82
2023/02/24 03:25:33;;;;;;;51.10;25.77;;;7.20;99.90;;;;;;466229;255;27831;-82
2023/02/24 03:27:34;;;;;;;61.93;23.40;;;7.20;99.90;;;;;;466260;255;28176;-82
2023/02/24 03:29:35;;;;;;;46.23;23.93;;;7.10;99.90;;;;;;466250;255;28165;-81
2023/02/24 03:31:37;;;;;;;50.10;24.10;;;7.20;99.90;;;;;;466221;255;28549;-83
2023/02/24 03:33:39;;;;;;;52.13;26.50;;;7.10;99.90;;;;;;466201;255;28545;-82
2023/02/24 03:35:40;;;;;;;53.37;25.47;;;7.10;99.90;;;;;;466186;255;28673;-81
2023/02/24 03:37:41;;;;;;;43.90;22.00;;;7.10;99.90;;;;;;466088;255;28048;-83
2023/02/24 03:39:42;;;;;;;53.50;25.80;;;7.10;99.90;;;;;;466226;255;27815;-81
2023/02/24 03:41:43;;;;;;;54.20;26.00;;;7.10;99.90;;;;;;466214;255;27905;-82
2023/02/24 03:43:44;;;;;;;52.77;25.77;;;7.10;99.90;;;;;;466208;254;28181;-82
2023/02/24 03:45:46;;;;;;;54.83;25.70;;;7.10;99.90;;;;;;466245;255;28204;-81
2023/02/24 03:47:47;;;;;;;55.67;25.77;;;7.10;99.90;;;;;;466144;255;27992;-83
2023/02/24 03:49:49;;;;;;;50.37;24.10;;;7.00;99.90;;;;;;466235;253;28627;-81
2023/02/24 03:51:55;;;;;;;53.40;25.90;;;7.00;99.90;;;;;;466206;255;28247;-82
2023/02/24 03:53:51;;;;;;;53.13;24.47;;;7.10;99.90;;;;;;466188;255;27581;-82
2023/02/24 03:55:57;;;;;;;47.40;22.80;;;7.10;99.90;;;;;;466240;255;28078;-80
2023/02/24 03:57:58;;;;;;;53.70;25.90;;;7.00;99.90;;;;;;466332;253;28594;-79
2023/02/24 03:59:57;;;;;;;52.30;24.00;;;7.10;99.90;;;;;;466268;255;28609;-79
2023/02/24 04:01:59;;;;;;;54.63;23.77;;;7.10;99.90;;;;;;466446;255;28637;-81
2023/02/24 04:04:00;;;;;;;47.53;23.17;;;7.10;99.90;;;;;;466155;255;28146;-82
2023/02/24 04:06:01;;;;;;;49.93;22.40;;;7.10;99.90;;;;;;466198;255;27680;-82
2023/02/24 04:08:03;;;;;;;43.53;21.47;;;7.10;99.90;;;;;;466152;255;28078;-81
2023/02/24 04:10:04;;;;;;;54.83;23.27;;;7.00;99.90;;;;;;466157;255;28159;-82
2023/02/24 04:12:07;;;;;;;49.73;23.23;;;7.10;99.90;;;;;;465992;255;28092;-82
2023/02/24 04:14:06;;;;;;;44.93;21.40;;;7.10;99.90;;;;;;466098;255;27526;-82
2023/02/24 04:16:07;;;;;;;53.50;24.20;;;7.10;99.90;;;;;;466110;255;28515;-81
2023/02/24 04:18:09;;;;;;;51.67;24.77;;;7.00;99.90;;;;;;466175;255;28674;-82
2023/02/24 04:20:19;;;;;;;41.90;21.20;;;7.10;99.90;;;;;;466117;255;28578;-83
2023/02/24 04:22:11;;;;;;;42.93;21.17;;;7.00;99.90;;;;;;465806;255;27954;-82
2023/02/24 04:24:14;;;;;;;44.30;20.50;;;7.00;99.90;;;;;;466373;255;27791;-81
2023/02/24 04:26:14;;;;;;;43.63;20.60;;;7.00;99.90;;;;;;466599;255;27961;-82
2023/02/24 04:28:17;;;;;;;50.43;23.00;;;7.00;99.90;;;;;;466512;255;27862;-82
2023/02/24 04:30:16;;;;;;;48.53;22.63;;;7.00;99.90;;;;;;466382;255;28032;-81
2023/02/24 04:32:17;;;;;;;47.70;21.57;;;7.00;99.90;;;;;;466317;255;27877;-81
2023/02/24 04:34:19;;;;;;;38.80;19.50;;;7.00;99.90;;;;;;466376;253;28494;-80
2023/02/24 04:36:20;;;;;;;47.93;20.67;;;7.00;99.90;;;;;;466209;255;28502;-81
2023/02/24 04:38:22;;;;;;;45.90;21.20;;;7.00;99.90;;;;;;466288;253;27831;-82
2023/02/24 04:40:22;;;;;;;53.23;24.30;;;7.00;99.90;;;;;;466211;255;27557;-81
2023/02/24 04:42:24;;;;;;;44.50;20.27;;;7.00;99.90;;;;;;466199;254;27814;-82
2023/02/24 04:44:27;;;;;;;50.00;21.87;;;7.00;99.90;;;;;;466205;255;28025;-81
2023/02/24 04:46:26;;;;;;;47.23;22.00;;;7.10;99.90;;;;;;466152;255;28068;-81
2023/02/24 04:48:29;;;;;;;60.37;23.50;;;7.10;99.90;;;;;;466214;255;28278;-80
2023/02/24 04:50:29;;;;;;;45.00;21.73;;;7.00;99.90;;;;;;466166;255;27768;-82
2023/02/24 04:52:30;;;;;;;42.73;20.83;;;7.00;99.90;;;;;;466203;253;28269;-81
2023/02/24 04:54:33;;;;;;;42.53;21.00;;;7.00;99.90;;;;;;466182;255;29746;-83
2023/02/24 04:56:32;;;;;;;46.20;22.00;;;7.00;99.90;;;;;;466452;254;27921;-81
2023/02/24 04:58:34;;;;;;;47.63;21.07;;;7.00;99.90;;;;;;466445;255;28106;-82
2023/02/24 05:00:35;;;;;;;52.43;22.60;;;7.00;99.90;;;;;;466386;255;28106;-82
2023/02/24 05:02:37;;;;;;;53.45;22.70;;;7.00;99.90;;;;;;466417;253;28204;-80
2023/02/24 05:04:37;;;;;;;45.93;22.40;;;7.00;99.90;;;;;;466140;255;27565;-82
2023/02/24 05:06:43;;;;;;;48.37;22.07;;;7.00;99.90;;;;;;466294;253;28470;-81
2023/02/24 05:08:43;;;;;;;43.73;21.77;;;7.00;99.90;;;;;;466253;254;28039;-80
2023/02/24 05:10:44;;;;;;;44.80;20.97;;;7.00;99.90;;;;;;466222;255;28272;-81
2023/02/24 05:12:45;;;;;;;45.87;22.40;;;7.00;99.90;;;;;;466386;253;28299;-81
2023/02/24 05:14:48;;;;;;;47.13;22.00;;;7.00;99.90;;;;;;466380;255;28084;-80
2023/02/24 05:16:48;;;;;;;42.50;21.17;;;7.00;99.90;;;;;;466189;255;28463;-81
2023/02/24 05:18:49;;;;;;;46.73;21.77;;;7.00;99.90;;;;;;466191;255;29388;-81
2023/02/24 05:23:10;;;;;;;52.40;22.77;;;7.00;99.90;;;;;;466687;250;28104;-81
2023/02/24 05:25:13;;;;;;;49.43;21.50;;;7.00;99.90;;;;;;466155;255;28044;-80
2023/02/24 05:27:15;;;;;;;42.55;19.87;;;7.00;99.90;;;;;;466164;255;27716;-82
2023/02/24 05:29:14;;;;;;;40.58;19.23;;;7.00;99.90;;;;;;466171;255;27530;-80
2023/02/24 05:31:15;;;;;;;45.93;20.87;;;6.90;99.90;;;;;;466173;255;28118;-81
2023/02/24 05:33:20;;;;;;;47.60;23.20;;;6.90;99.90;;;;;;466223;255;28504;-81
2023/02/24 05:35:18;;;;;;;41.57;19.40;;;6.90;99.90;;;;;;466060;255;27930;-81
2023/02/24 05:37:19;;;;;;;37.93;18.60;;;6.90;99.90;;;;;;466216;255;28094;-80
2023/02/24 05:39:20;;;;;;;50.37;23.80;;;6.90;99.90;;;;;;466114;255;28036;-81
2023/02/24 05:41:21;;;;;;;44.67;20.57;;;6.80;99.90;;;;;;466380;255;28221;-81
2023/02/24 05:43:25;;;;;;;47.50;22.13;;;6.80;99.90;;;;;;466416;255;28786;-82
2023/02/24 05:45:29;;;;;;;43.27;20.67;;;6.90;99.90;;;;;;466427;255;28034;-80
2023/02/24 05:47:26;;;;;;;48.40;21.70;;;6.90;99.90;;;;;;466211;255;28171;-79
2023/02/24 05:49:28;;;;;;;47.07;20.57;;;6.90;99.90;;;;;;466490;253;28161;-80
2023/02/24 05:51:34;;;;;;;41.57;21.20;;;6.90;99.90;;;;;;466321;255;29037;-82
2023/02/24 05:53:29;;;;;;;47.70;23.90;;;6.90;99.90;;;;;;466326;253;28204;-81
2023/02/24 05:55:30;;;;;;;52.13;23.40;;;6.90;99.90;;;;;;466213;255;28150;-82
2023/02/24 05:57:34;;;;;;;49.23;20.97;;;6.90;99.90;;;;;;466284;253;28062;-81
2023/02/24 05:59:33;;;;;;;56.73;23.43;;;6.90;99.90;;;;;;466220;255;28519;-81
2023/02/24 06:01:34;;;;;;;45.77;20.40;;;6.90;99.90;;;;;;466194;255;28490;-81
2023/02/24 06:03:35;;;;;;;41.80;19.57;;;6.90;99.90;;;;;;466185;255;28402;-81
2023/02/24 06:05:38;;;;;;;53.33;22.90;;;6.90;99.90;;;;;;466184;254;28037;-81
2023/02/24 06:07:38;;;;;;;42.43;20.30;;;6.90;99.90;;;;;;466437;255;28064;-81
2023/02/24 06:09:41;;;;;;;43.10;21.57;;;6.80;99.90;;;;;;466440;255;28178;-80
2023/02/24 06:11:40;;;;;;;46.07;20.70;;;6.90;99.90;;;;;;466218;255;27785;-81
2023/02/24 06:13:46;;;;;;;41.73;21.00;;;6.90;99.90;;;;;;466312;253;28026;-81
2023/02/24 06:15:49;;;;;;;47.67;22.73;;;6.90;99.90;;;;;;466081;255;27918;-81
2023/02/24 06:17:44;;;;;;;49.90;22.50;;;6.90;99.90;;;;;;466202;255;28332;-81
2023/02/24 06:19:45;;;;;;;49.97;22.37;;;6.90;99.90;;;;;;466339;255;28435;-80
2023/02/24 06:21:47;;;;;;;49.13;22.70;;;6.90;99.90;;;;;;466312;255;27537;-80
2023/02/24 06:23:48;;;;;;;49.20;22.20;;;6.90;99.90;;;;;;466325;255;28966;-80
2023/02/24 06:25:49;;;;;;;58.80;24.50;;;6.90;99.90;;;;;;466363;255;28002;-80
2023/02/24 06:27:52;;;;;;;47.47;22.70;;;6.90;99.90;;;;;;466350;255;28373;-80
2023/02/24 06:29:52;;;;;;;50.93;23.30;;;6.90;99.90;;;;;;466256;255;28172;-81
2023/02/24 06:31:53;;;;;;;51.43;22.70;;;6.80;99.90;;;;;;466457;255;27711;-82
2023/02/24 06:33:54;;;;;;;51.47;24.00;;;6.90;99.90;;;;;;466508;253;28550;-82
2023/02/24 06:35:55;;;;;;;45.47;20.30;;;6.90;99.90;;;;;;466472;255;28534;-82
2023/02/24 06:37:57;;;;;;;48.43;22.30;;;6.90;99.90;;;;;;466415;255;27879;-80
2023/02/24 06:39:58;;;;;;;41.60;20.00;;;6.90;99.90;;;;;;466439;255;28054;-80
2023/02/24 06:42:03;;;;;;;46.13;21.47;;;6.90;99.90;;;;;;466430;255;28128;-80
2023/02/24 06:44:00;;;;;;;46.37;21.63;;;6.90;99.90;;;;;;466207;255;28151;-80
2023/02/24 06:46:02;;;;;;;42.00;19.00;;;6.90;99.90;;;;;;466373;255;27943;-81
2023/02/24 06:48:03;;;;;;;51.03;21.60;;;6.90;99.90;;;;;;466332;255;27739;-82
2023/02/24 06:50:08;;;;;;;44.77;21.37;;;6.90;99.90;;;;;;466344;255;27944;-81
2023/02/24 06:52:09;;;;;;;46.20;21.33;;;6.90;99.90;;;;;;466489;253;29440;-83
2023/02/24 06:54:11;;;;;;;47.60;22.13;;;7.00;99.90;;;;;;466233;255;28420;-82
2023/02/24 06:56:14;;;;;;;51.47;22.90;;;7.00;99.90;;;;;;466381;255;28669;-79
2023/02/24 06:58:15;;;;;;;44.77;19.90;;;7.00;99.90;;;;;;466537;253;28050;-80
2023/02/24 07:00:16;;;;;;;50.23;21.97;;;6.90;99.90;;;;;;466452;255;28078;-82
2023/02/24 07:02:18;;;;;;;46.67;21.57;;;6.90;99.90;;;;;;466336;255;27918;-80
2023/02/24 07:04:19;;;;;;;46.47;20.93;;;6.90;99.90;;;;;;466239;255;28629;-82
2023/02/24 07:06:22;;;;;;;48.43;20.63;;;6.90;99.90;;;;;;466189;255;28601;-82
2023/02/24 07:08:21;;;;;;;46.10;21.80;;;6.90;99.90;;;;;;466420;255;28060;-83
2023/02/24 07:10:23;;;;;;;46.77;19.77;;;6.90;99.90;;;;;;466662;253;27694;-80
2023/02/24 07:12:24;;;;;;;43.37;20.10;;;6.90;99.90;;;;;;466180;255;28066;-80
2023/02/24 07:14:25;;;;;;;47.00;22.03;;;6.80;99.90;;;;;;466167;255;27957;-81
2023/02/24 07:16:29;;;;;;;50.93;21.90;;;6.80;99.90;;;;;;466172;255;27959;-81
2023/02/24 07:18:29;;;;;;;49.93;21.73;;;6.80;99.90;;;;;;466093;255;27917;-81
2023/02/24 07:20:29;;;;;;;45.20;21.53;;;6.90;99.90;;;;;;466219;255;28052;-81
2023/02/24 07:22:30;;;;;;;44.17;19.87;;;6.90;99.90;;;;;;466427;255;28494;-81
2023/02/24 07:24:44;;;;;;;42.50;21.00;;;6.90;99.90;;;;;;466458;254;28417;-82
2023/02/24 07:26:40;;;;;;;43.90;20.60;;;6.90;99.90;;;;;;466551;253;28878;-80
2023/02/24 07:28:40;;;;;;;52.13;22.60;;;6.90;99.90;;;;;;466429;255;28569;-80
2023/02/24 07:30:41;;;;;;;50.80;21.70;;;6.90;99.90;;;;;;466147;255;28515;-82
2023/02/24 07:32:45;;;;;;;54.20;23.40;;;6.90;99.90;;;;;;466171;255;28624;-81
2023/02/24 07:34:44;;;;;;;55.23;22.63;;;6.90;99.90;;;;;;466180;253;27902;-80
2023/02/24 07:36:48;;;;;;;48.23;22.23;;;6.90;99.90;;;;;;466187;255;28378;-80
2023/02/24 07:38:46;;;;;;;46.50;20.77;;;6.80;99.90;;;;;;466323;255;28093;-79
2023/02/24 07:40:48;;;;;;;47.33;20.87;;;6.90;99.90;;;;;;466285;255;27963;-80
2023/02/24 07:42:49;;;;;;;45.33;20.47;;;6.90;99.90;;;;;;466161;255;27927;-81
2023/02/24 07:44:50;;;;;;;58.57;23.17;;;6.90;99.90;;;;;;466191;255;28063;-81
2023/02/24 07:46:51;;;;;;;52.30;22.80;;;6.90;99.90;;;;;;466130;255;28606;-81
2023/02/24 07:48:52;;;;;;;44.83;20.97;;;7.00;99.90;;;;;;466244;255;28370;-80
2023/02/24 07:50:54;;;;;;;45.77;21.70;;;7.00;99.90;;;;;;466316;253;28546;-81
2023/02/24 07:52:56;;;;;;;40.57;19.43;;;7.10;99.90;;;;;;466115;255;28005;-81
2023/02/24 07:54:57;;;;;;;47.20;20.90;;;7.20;99.90;;;;;;466123;255;28192;-80
2023/02/24 07:56:57;;;;;;;46.77;21.10;;;7.30;99.90;;;;;;466208;255;28062;-81
2023/02/24 07:58:59;;;;;;;51.63;23.87;;;7.30;99.90;;;;;;466212;255;28045;-81
2023/02/24 08:01:07;;;;;;;51.20;21.77;;;7.30;99.90;;;;;;466209;255;28056;-81
2023/02/24 08:03:01;;;;;;;49.97;21.37;;;7.30;99.90;;;;;;466188;255;27908;-81
2023/02/24 08:05:02;;;;;;;47.93;22.07;;;7.30;99.90;;;;;;466218;253;28327;-80
2023/02/24 08:07:04;;;;;;;61.17;25.83;;;7.40;99.90;;;;;;466181;255;28918;-81
2023/02/24 08:09:18;;;;;;;43.23;21.10;;;7.30;99.90;;;;;;466221;255;28094;-80
2023/02/24 08:11:23;;;;;;;50.90;22.40;;;7.30;99.90;;;;;;466384;253;28044;-83
2023/02/24 08:13:20;;;;;;;45.27;20.60;;;7.40;99.90;;;;;;466200;255;27702;-82
2023/02/24 08:15:23;;;;;;;52.23;24.00;;;7.50;99.90;;;;;;466209;255;27917;-82
2023/02/24 08:17:22;;;;;;;56.00;24.20;;;7.50;99.90;;;;;;466216;255;28265;-81
2023/02/24 08:19:23;;;;;;;43.37;20.47;;;7.50;99.90;;;;;;466233;255;27739;-80
2023/02/24 08:21:26;;;;;;;53.90;23.50;;;7.50;99.90;;;;;;466215;253;28469;-83
2023/02/24 08:23:26;;;;;;;47.07;21.57;;;7.50;99.90;;;;;;466210;255;28511;-81
2023/02/24 08:25:37;;;;;;;49.00;22.90;;;7.50;99.90;;;;;;466437;253;28590;-80
2023/02/24 08:27:32;;;;;;;48.57;21.27;;;7.60;99.90;;;;;;465840;255;28159;-82
2023/02/24 08:29:30;;;;;;;49.20;23.77;;;7.70;99.90;;;;;;466098;255;28142;-83
2023/02/24 08:31:31;;;;;;;48.07;22.70;;;7.70;99.90;;;;;;466207;255;28207;-82
2023/02/24 08:33:36;;;;;;;55.63;24.07;;;7.80;99.90;;;;;;466221;255;30051;-82
2023/02/24 08:35:34;;;;;;;55.73;25.37;;;7.80;99.90;;;;;;466239;255;27593;-81
2023/02/24 08:37:45;;;;;;;54.80;23.60;;;7.80;99.90;;;;;;466216;255;28085;-81
2023/02/24 08:39:43;;;;;;;58.77;24.97;;;7.80;99.90;;;;;;466366;254;28042;-81
2023/02/24 08:41:50;;;;;;;55.67;24.53;;;7.80;99.90;;;;;;466185;255;28188;-81
2023/02/24 08:43:47;;;;;;;50.53;23.00;;;7.80;99.90;;;;;;466353;253;28124;-79
2023/02/24 08:45:51;;;;;;;51.30;24.37;;;7.80;99.90;;;;;;466191;255;27788;-81
2023/02/24 08:47:53;;;;;;;58.43;25.50;;;7.90;99.90;;;;;;466341;253;27967;-82
2023/02/24 08:49:54;;;;;;;52.80;24.70;;;7.90;99.90;;;;;;466211;254;27684;-82
2023/02/24 08:52:01;;;;;;;57.03;25.47;;;8.00;99.90;;;;;;466231;255;27957;-82
2023/02/24 08:53:57;;;;;;;56.63;25.90;;;8.10;99.90;;;;;;466216;255;27950;-82
2023/02/24 08:55:58;;;;;;;56.17;24.50;;;8.00;99.90;;;;;;466205;254;27964;-83
2023/02/24 08:58:02;;;;;;;51.83;24.10;;;8.00;99.90;;;;;;466174;255;29527;-83
2023/02/24 09:00:05;;;;;;;49.00;23.07;;;8.00;99.90;;;;;;466549;253;28080;-79
2023/02/24 09:04:24;;;;;;;50.40;23.13;;;8.00;99.90;;;;;;466308;253;28780;-80
2023/02/24 09:06:25;;;;;;;50.90;24.03;;;8.10;99.90;;;;;;466319;255;28853;-80
2023/02/24 09:08:31;;;;;;;51.13;23.57;;;8.10;99.90;;;;;;466190;255;28549;-81
2023/02/24 09:10:28;;;;;;;49.57;21.93;;;8.10;99.90;;;;;;466458;253;27944;-83
2023/02/24 09:12:29;;;;;;;46.00;22.60;;;8.10;99.90;;;;;;466152;255;27923;-82
2023/02/24 09:14:35;;;;;;;45.90;22.30;;;8.10;99.90;;;;;;466211;255;28186;-81
2023/02/24 09:16:32;;;;;;;44.90;21.07;;;8.10;99.90;;;;;;466193;255;28055;-81
2023/02/24 09:18:37;;;;;;;44.83;22.33;;;8.20;99.90;;;;;;466377;253;29483;-81
2023/02/24 09:23:02;;;;;;;46.03;22.73;;;8.40;99.90;;;;;;466258;253;28575;-82
2023/02/24 09:25:22;;;;;;;43.47;21.03;;;8.50;99.90;;;;;;466224;255;28042;-79
2023/02/24 09:26:59;;;;;;;41.53;20.33;;;8.60;99.90;;;;;;465520;255;27927;-81
2023/02/24 09:29:19;;;;;;;44.37;21.93;;;8.70;99.90;;;;;;463022;255;36651;-79
2023/02/24 09:31:03;;;;;;;49.17;22.90;;;8.70;99.90;;;;;;466227;255;29037;-82
2023/02/24 09:33:03;;;;;;;45.87;21.03;;;8.80;99.90;;;;;;466193;255;28323;-82
2023/02/24 09:35:04;;;;;;;45.10;21.83;;;8.90;99.90;;;;;;466246;255;28515;-82
2023/02/24 09:37:23;;;;;;;37.27;19.37;;;9.10;99.90;;;;;;466263;255;28481;-83
2023/02/24 09:41:08;;;;;;;36.50;19.60;;;9.10;99.90;;;;;;466221;255;28058;-82
2023/02/24 09:43:16;;;;;;;40.50;18.93;;;9.10;99.90;;;;;;466224;255;28082;-83
2023/02/24 09:45:11;;;;;;;34.13;17.13;;;9.10;99.90;;;;;;466191;255;28076;-83
2023/02/24 09:47:12;;;;;;;35.20;17.40;;;9.10;99.90;;;;;;466259;255;28011;-82
2023/02/24 09:49:13;;;;;;;34.57;17.27;;;9.20;99.90;;;;;;466230;255;28182;-82
2023/02/24 09:51:24;;;;;;;37.83;18.27;;;9.20;99.90;;;;;;466246;255;27804;-82
2023/02/24 09:53:28;;;;;;;34.30;17.87;;;9.20;99.90;;;;;;466211;253;28083;-81
2023/02/24 09:55:24;;;;;;;39.90;17.67;;;9.30;99.90;;;;;;466249;251;28602;-82
2023/02/24 09:57:36;;;;;;;34.37;17.10;;;9.40;99.90;;;;;;466236;255;28579;-82
2023/02/24 09:59:27;;;;;;;29.63;16.60;;;9.40;99.90;;;;;;466270;255;28412;-82
2023/02/24 10:01:32;;;;;;;31.33;15.90;;;9.50;99.90;;;;;;466218;255;28017;-83
2023/02/24 10:03:41;;;;;;;35.37;17.43;;;9.50;99.90;;;;;;466215;255;27699;-83
2023/02/24 10:05:44;;;;;;;32.63;16.50;;;9.50;99.90;;;;;;466334;253;28134;-82
2023/02/24 10:07:44;;;;;;;26.40;15.27;;;9.60;99.90;;;;;;466209;255;28151;-82
2023/02/24 10:09:45;;;;;;;26.77;15.00;;;9.50;99.90;;;;;;466253;255;28620;-83
2023/02/24 10:12:03;;;;;;;29.33;15.27;;;9.40;99.90;;;;;;466249;255;28489;-83
2023/02/24 10:13:48;;;;;;;27.33;14.40;;;9.40;99.90;;;;;;465906;255;28103;-82
2023/02/24 10:17:56;;;;;;;27.23;14.63;;;9.40;99.90;;;;;;466358;253;28212;-83
2023/02/24 10:20:01;;;;;;;24.30;14.00;;;9.40;99.90;;;;;;466253;255;28161;-81
2023/02/24 10:22:01;;;;;;;19.07;11.37;;;9.50;99.90;;;;;;465998;255;28151;-83
2023/02/24 10:24:04;;;;;;;28.10;13.07;;;9.60;99.90;;;;;;466285;253;28579;-82
2023/02/24 10:26:04;;;;;;;22.40;12.43;;;9.60;99.90;;;;;;466246;255;28191;-83
2023/02/24 10:28:05;;;;;;;26.30;13.50;;;9.50;99.90;;;;;;466181;255;28146;-82
2023/02/24 10:30:09;;;;;;;20.90;11.03;;;9.60;99.90;;;;;;466432;253;28082;-81
2023/02/24 10:32:07;;;;;;;23.97;12.10;;;9.70;99.90;;;;;;466213;255;27928;-81
2023/02/24 10:34:09;;;;;;;22.03;12.00;;;9.70;99.90;;;;;;466204;255;27695;-83
2023/02/24 10:36:10;;;;;;;20.07;11.17;;;9.70;99.90;;;;;;466192;255;28168;-82